createdAt,value
2023-04-11T00:00:10.828Z,100494.23
2023-04-11T00:00:38.434Z,100497.97
2023-04-11T00:01:01.775Z,100492.34
2023-04-11T00:01:25.170Z,100491.42
2023-04-11T00:01:49.926Z,100494.98
2023-04-11T00:02:13.969Z,100493.75
2023-04-11T00:02:39.263Z,100494.90
2023-04-11T00:03:03.101Z,100494.27
2023-04-11T00:03:26.668Z,100494.33
2023-04-11T00:03:50.170Z,100492.80
2023-04-11T00:04:15.182Z,100489.14
2023-04-11T00:04:39.364Z,100490.45
2023-04-11T00:05:03.397Z,100493.51
2023-04-11T00:05:27.571Z,100491.80
2023-04-11T00:05:50.680Z,100491.92
2023-04-11T00:06:20.537Z,100493.41
2023-04-11T00:06:44.805Z,100491.65
2023-04-11T00:07:07.885Z,100489.29
2023-04-11T00:07:32.743Z,100494.16
2023-04-11T00:07:55.979Z,100489.27
2023-04-11T00:08:19.895Z,100494.97
2023-04-11T00:08:44.659Z,100490.66
2023-04-11T00:09:08.781Z,100497.92
2023-04-11T00:09:32.099Z,100498.97
2023-04-11T00:09:56.236Z,100494.46
2023-04-11T00:10:19.655Z,100495.59
2023-04-11T00:10:44.960Z,100495.80
2023-04-11T00:11:08.851Z,100495.92
2023-04-11T00:11:32.372Z,100498.94
2023-04-11T00:11:57.035Z,100496.34
2023-04-11T00:12:20.300Z,100498.04
2023-04-11T00:12:43.454Z,100499.50
2023-04-11T00:13:10.491Z,100500.37
2023-04-11T00:13:37.871Z,100496.91
2023-04-11T00:14:01.188Z,100499.52
2023-04-11T00:14:25.324Z,100497.36
2023-04-11T00:14:49.457Z,100499.58
2023-04-11T00:15:12.477Z,100496.65
2023-04-11T00:15:37.745Z,100493.35
2023-04-11T00:16:03.698Z,100493.09
2023-04-11T00:16:27.038Z,100493.11
2023-04-11T00:16:54.130Z,100493.85
2023-04-11T00:17:17.958Z,100493.09
2023-04-11T00:17:41.753Z,100489.86
2023-04-11T00:18:06.573Z,100490.26
2023-04-11T00:18:29.732Z,100491.52
2023-04-11T00:18:53.034Z,100489.98
2023-04-11T00:19:17.219Z,100492.39
2023-04-11T00:19:40.328Z,100491.02
2023-04-11T00:20:11.084Z,100491.97
2023-04-11T00:20:34.446Z,100487.55
2023-04-11T00:21:00.612Z,100491.86
2023-04-11T00:21:25.050Z,100493.70
2023-04-11T00:21:48.269Z,100496.07
2023-04-11T00:22:14.039Z,100498.22
2023-04-11T00:22:39.106Z,100494.03
2023-04-11T00:23:02.215Z,100492.90
2023-04-11T00:23:25.957Z,100492.73
2023-04-11T00:23:49.777Z,100491.42
2023-04-11T00:24:12.993Z,100493.77
2023-04-11T00:24:36.410Z,100493.84
2023-04-11T00:24:59.426Z,100494.40
2023-04-11T00:25:22.666Z,100491.77
2023-04-11T00:25:45.970Z,100490.75
2023-04-11T00:26:09.196Z,100493.79
2023-04-11T00:26:38.934Z,100491.20
2023-04-11T00:27:02.238Z,100490.73
2023-04-11T00:27:26.402Z,100490.42
2023-04-11T00:27:49.508Z,100492.05
2023-04-11T00:28:13.135Z,100494.41
2023-04-11T00:28:37.488Z,100492.72
2023-04-11T00:29:00.803Z,100491.90
2023-04-11T00:29:24.415Z,100492.78
2023-04-11T00:29:47.629Z,100498.64
2023-04-11T00:30:11.256Z,100493.75
2023-04-11T00:30:34.377Z,100491.86
2023-04-11T00:30:58.403Z,100490.88
2023-04-11T00:31:21.588Z,100491.10
2023-04-11T00:31:44.807Z,100491.48
2023-04-11T00:32:08.086Z,100494.70
2023-04-11T00:32:31.311Z,100489.83
2023-04-11T00:32:54.423Z,100489.00
2023-04-11T00:33:18.675Z,100492.39
2023-04-11T00:33:42.108Z,100494.54
2023-04-11T00:34:05.377Z,100490.86
2023-04-11T00:34:28.686Z,100493.04
2023-04-11T00:34:52.615Z,100492.13
2023-04-11T00:35:16.235Z,100495.64
2023-04-11T00:35:40.939Z,100497.30
2023-04-11T00:36:04.496Z,100495.05
2023-04-11T00:36:28.615Z,100498.09
2023-04-11T00:36:51.819Z,100499.54
2023-04-11T00:37:15.081Z,100497.77
2023-04-11T00:37:38.397Z,100499.92
2023-04-11T00:38:02.504Z,100499.38
2023-04-11T00:38:25.547Z,100501.02
2023-04-11T00:38:55.230Z,100501.57
2023-04-11T00:39:20.466Z,100501.34
2023-04-11T00:39:45.248Z,100500.09
2023-04-11T00:40:09.057Z,100503.89
2023-04-11T00:40:32.773Z,100504.46
2023-04-11T00:41:15.629Z,100501.87
2023-04-11T00:41:43.140Z,100499.09
2023-04-11T00:42:08.000Z,100496.33
2023-04-11T00:42:33.869Z,100501.63
2023-04-11T00:42:57.090Z,100498.52
2023-04-11T00:43:20.404Z,100497.52
2023-04-11T00:43:43.437Z,100500.48
2023-04-11T00:44:07.255Z,100498.80
2023-04-11T00:44:31.996Z,100500.96
2023-04-11T00:44:55.315Z,100501.50
2023-04-11T00:45:18.398Z,100500.31
2023-04-11T00:45:41.559Z,100498.29
2023-04-11T00:46:05.728Z,100499.36
2023-04-11T00:46:28.998Z,100498.33
2023-04-11T00:46:52.009Z,100502.27
2023-04-11T00:47:15.483Z,100498.59
2023-04-11T00:47:39.033Z,100503.00
2023-04-11T00:48:08.449Z,100498.81
2023-04-11T00:48:36.636Z,100499.41
2023-04-11T00:48:59.832Z,100499.41
2023-04-11T00:49:26.544Z,100500.73
2023-04-11T00:49:50.075Z,100501.42
2023-04-11T00:50:14.284Z,100502.50
2023-04-11T00:50:41.715Z,100500.08
2023-04-11T00:51:05.464Z,100504.55
2023-04-11T00:51:28.866Z,100503.89
2023-04-11T00:51:52.102Z,100500.92
2023-04-11T00:52:16.113Z,100502.16
2023-04-11T00:52:39.435Z,100502.33
2023-04-11T00:53:02.549Z,100503.61
2023-04-11T00:53:25.968Z,100501.69
2023-04-11T00:53:49.398Z,100503.46
2023-04-11T00:54:13.427Z,100500.46
2023-04-11T00:54:36.331Z,100502.45
2023-04-11T00:55:09.689Z,100504.17
2023-04-11T00:55:33.302Z,100503.28
2023-04-11T00:55:56.415Z,100505.03
2023-04-11T00:56:21.062Z,100506.30
2023-04-11T00:56:44.079Z,100508.04
2023-04-11T00:57:09.014Z,100507.14
2023-04-11T00:57:32.558Z,100505.96
2023-04-11T00:57:56.081Z,100506.32
2023-04-11T00:58:19.907Z,100506.78
2023-04-11T00:58:43.433Z,100505.30
2023-04-11T00:59:06.850Z,100508.42
2023-04-11T00:59:30.375Z,100508.28
2023-04-11T00:59:53.493Z,100506.16
2023-04-11T01:00:16.607Z,100505.81
2023-04-11T01:00:42.996Z,100507.98
2023-04-11T01:01:09.674Z,100506.76
2023-04-11T01:01:36.622Z,100507.52
2023-04-11T01:02:00.512Z,100508.73
2023-04-11T01:02:25.201Z,100507.23
2023-04-11T01:02:50.595Z,100505.83
2023-04-11T01:03:14.828Z,100506.74
2023-04-11T01:03:38.968Z,100505.35
2023-04-11T01:04:02.492Z,100503.98
2023-04-11T01:04:32.931Z,100503.95
2023-04-11T01:04:56.838Z,100505.61
2023-04-11T01:05:20.370Z,100504.73
2023-04-11T01:05:43.678Z,100504.94
2023-04-11T01:06:08.942Z,100503.59
2023-04-11T01:06:32.055Z,100502.38
2023-04-11T01:06:56.807Z,100504.16
2023-04-11T01:07:19.816Z,100504.23
2023-04-11T01:07:44.057Z,100504.05
2023-04-11T01:08:07.894Z,100502.70
2023-04-11T01:08:31.133Z,100505.05
2023-04-11T01:08:54.485Z,100500.89
2023-04-11T01:09:19.078Z,100503.38
2023-04-11T01:09:42.292Z,100501.45
2023-04-11T01:10:06.113Z,100504.85
2023-04-11T01:10:30.927Z,100505.24
2023-04-11T01:10:54.113Z,100504.58
2023-04-11T01:11:20.339Z,100502.88
2023-04-11T01:11:43.379Z,100503.96
2023-04-11T01:12:06.717Z,100505.23
2023-04-11T01:12:29.915Z,100503.38
2023-04-11T01:13:01.413Z,100503.44
2023-04-11T01:13:34.251Z,100501.02
2023-04-11T01:13:57.601Z,100502.45
2023-04-11T01:14:22.211Z,100503.52
2023-04-11T01:14:47.988Z,100500.09
2023-04-11T01:15:11.039Z,100499.15
2023-04-11T01:15:34.726Z,100502.73
2023-04-11T01:15:58.082Z,100500.51
2023-04-11T01:16:21.898Z,100498.42
2023-04-11T01:16:47.569Z,100501.93
2023-04-11T01:17:12.924Z,100499.34
2023-04-11T01:17:36.284Z,100497.83
2023-04-11T01:18:02.397Z,100501.08
2023-04-11T01:18:28.389Z,100498.05
2023-04-11T01:18:51.813Z,100496.62
2023-04-11T01:19:18.234Z,100495.89
2023-04-11T01:19:42.752Z,100493.24
2023-04-11T01:20:07.961Z,100495.81
2023-04-11T01:20:32.037Z,100491.83
2023-04-11T01:20:55.764Z,100489.58
2023-04-11T01:21:20.720Z,100493.50
2023-04-11T01:21:45.063Z,100489.70
2023-04-11T01:22:08.074Z,100492.77
2023-04-11T01:22:31.902Z,100490.17
2023-04-11T01:22:56.969Z,100493.98
2023-04-11T01:23:26.114Z,100490.71
2023-04-11T01:23:52.852Z,100494.12
2023-04-11T01:24:15.920Z,100490.28
2023-04-11T01:24:39.052Z,100492.46
2023-04-11T01:25:03.385Z,100490.73
2023-04-11T01:25:27.302Z,100492.44
2023-04-11T01:25:51.244Z,100493.33
2023-04-11T01:26:14.656Z,100489.70
2023-04-11T01:26:38.181Z,100487.66
2023-04-11T01:27:02.323Z,100491.08
2023-04-11T01:27:26.045Z,100490.75
2023-04-11T01:27:49.059Z,100490.52
2023-04-11T01:28:13.114Z,100488.28
2023-04-11T01:28:36.424Z,100487.94
2023-04-11T01:28:59.934Z,100490.79
2023-04-11T01:29:22.920Z,100491.09
2023-04-11T01:29:46.164Z,100491.30
2023-04-11T01:30:12.884Z,100491.91
2023-04-11T01:30:36.288Z,100489.81
2023-04-11T01:30:59.523Z,100487.67
2023-04-11T01:31:27.341Z,100488.13
2023-04-11T01:31:51.175Z,100487.87
2023-04-11T01:32:14.566Z,100488.95
2023-04-11T01:32:37.911Z,100486.52
2023-04-11T01:33:01.083Z,100487.59
2023-04-11T01:33:25.028Z,100487.31
2023-04-11T01:33:48.355Z,100488.58
2023-04-11T01:34:14.327Z,100487.73
2023-04-11T01:34:37.956Z,100484.11
2023-04-11T01:35:01.067Z,100488.98
2023-04-11T01:35:24.486Z,100486.52
2023-04-11T01:35:47.794Z,100486.49
2023-04-11T01:36:11.608Z,100484.02
2023-04-11T01:36:39.456Z,100485.00
2023-04-11T01:37:02.975Z,100481.11
2023-04-11T01:37:26.333Z,100485.03
2023-04-11T01:37:50.334Z,100483.51
2023-04-11T01:38:13.647Z,100485.88
2023-04-11T01:38:37.172Z,100479.91
2023-04-11T01:39:00.703Z,100479.12
2023-04-11T01:39:24.121Z,100483.60
2023-04-11T01:39:47.240Z,100477.42
2023-04-11T01:40:10.751Z,100481.04
2023-04-11T01:40:35.093Z,100478.52
2023-04-11T01:40:58.311Z,100477.83
2023-04-11T01:41:21.729Z,100476.33
2023-04-11T01:41:52.106Z,100478.00
2023-04-11T01:42:15.453Z,100478.22
2023-04-11T01:42:38.491Z,100480.44
2023-04-11T01:43:04.836Z,100477.10
2023-04-11T01:43:28.448Z,100477.94
2023-04-11T01:43:51.662Z,100479.69
2023-04-11T01:44:15.716Z,100482.20
2023-04-11T01:44:39.016Z,100477.70
2023-04-11T01:45:02.438Z,100480.25
2023-04-11T01:45:26.475Z,100476.23
2023-04-11T01:45:51.542Z,100476.96
2023-04-11T01:46:14.847Z,100479.64
2023-04-11T01:46:37.860Z,100475.80
2023-04-11T01:47:04.254Z,100480.46
2023-04-11T01:47:28.050Z,100479.77
2023-04-11T01:47:54.830Z,100478.56
2023-04-11T01:48:18.123Z,100477.61
2023-04-11T01:48:42.487Z,100478.79
2023-04-11T01:49:06.868Z,100480.39
2023-04-11T01:49:30.935Z,100480.12
2023-04-11T01:49:54.033Z,100477.65
2023-04-11T01:50:17.237Z,100479.09
2023-04-11T01:50:43.011Z,100478.04
2023-04-11T01:51:07.554Z,100477.60
2023-04-11T01:51:30.978Z,100479.45
2023-04-11T01:51:55.032Z,100471.23
2023-04-11T01:52:18.329Z,100477.16
2023-04-11T01:52:42.462Z,100480.84
2023-04-11T01:53:11.830Z,100478.00
2023-04-11T01:53:35.045Z,100473.07
2023-04-11T01:53:58.868Z,100473.77
2023-04-11T01:54:22.391Z,100474.70
2023-04-11T01:54:46.015Z,100476.89
2023-04-11T01:55:09.334Z,100475.48
2023-04-11T01:55:33.366Z,100473.56
2023-04-11T01:55:56.998Z,100477.54
2023-04-11T01:56:20.238Z,100473.66
2023-04-11T01:56:43.834Z,100475.29
2023-04-11T01:57:07.059Z,100480.55
2023-04-11T01:57:30.168Z,100478.65
2023-04-11T01:57:53.282Z,100476.77
2023-04-11T01:58:16.603Z,100476.23
2023-04-11T01:58:39.827Z,100476.82
2023-04-11T01:59:05.811Z,100475.23
2023-04-11T01:59:29.110Z,100478.57
2023-04-11T01:59:54.175Z,100478.77
2023-04-11T02:00:17.697Z,100477.27
2023-04-11T02:00:42.238Z,100473.93
2023-04-11T02:01:05.704Z,100479.09
2023-04-11T02:01:32.204Z,100478.04
2023-04-11T02:01:55.649Z,100476.67
2023-04-11T02:02:20.908Z,100474.58
2023-04-11T02:02:44.302Z,100475.87
2023-04-11T02:03:07.833Z,100471.83
2023-04-11T02:03:32.783Z,100476.08
2023-04-11T02:03:57.667Z,100474.92
2023-04-11T02:04:21.188Z,100477.40
2023-04-11T02:04:44.733Z,100473.20
2023-04-11T02:05:11.032Z,100473.57
2023-04-11T02:05:36.376Z,100475.22
2023-04-11T02:06:04.108Z,100472.48
2023-04-11T02:06:38.786Z,100472.14
2023-04-11T02:07:03.008Z,100474.09
2023-04-11T02:07:29.019Z,100474.23
2023-04-11T02:07:52.923Z,100471.41
2023-04-11T02:08:16.438Z,100469.15
2023-04-11T02:08:41.153Z,100468.04
2023-04-11T02:09:04.614Z,100469.16
2023-04-11T02:09:28.234Z,100468.74
2023-04-11T02:09:51.363Z,100469.77
2023-04-11T02:10:15.079Z,100469.41
2023-04-11T02:10:38.396Z,100463.75
2023-04-11T02:11:01.549Z,100467.53
2023-04-11T02:11:24.929Z,100467.38
2023-04-11T02:11:47.954Z,100467.74
2023-04-11T02:12:12.973Z,100466.21
2023-04-11T02:12:37.654Z,100464.79
2023-04-11T02:13:04.443Z,100467.47
2023-04-11T02:13:37.189Z,100463.80
2023-04-11T02:14:06.493Z,100465.42
2023-04-11T02:14:38.857Z,100464.39
2023-04-11T02:15:02.796Z,100464.41
2023-04-11T02:15:28.573Z,100465.13
2023-04-11T02:15:53.384Z,100464.22
2023-04-11T02:16:20.974Z,100461.46
2023-04-11T02:16:51.217Z,100463.05
2023-04-11T02:17:14.356Z,100463.44
2023-04-11T02:17:37.771Z,100463.08
2023-04-11T02:18:02.075Z,100464.02
2023-04-11T02:18:26.301Z,100464.90
2023-04-11T02:18:49.517Z,100461.23
2023-04-11T02:19:12.733Z,100465.13
2023-04-11T02:19:36.415Z,100463.23
2023-04-11T02:19:59.476Z,100465.54
2023-04-11T02:20:24.720Z,100462.09
2023-04-11T02:20:53.280Z,100461.89
2023-04-11T02:21:19.050Z,100465.90
2023-04-11T02:21:50.034Z,100461.77
2023-04-11T02:22:13.260Z,100460.43
2023-04-11T02:22:37.126Z,100459.03
2023-04-11T02:23:04.561Z,100458.35
2023-04-11T02:23:29.343Z,100458.17
2023-04-11T02:23:52.596Z,100458.75
2023-04-11T02:24:17.099Z,100458.79
2023-04-11T02:24:41.644Z,100458.55
2023-04-11T02:25:06.312Z,100454.30
2023-04-11T02:25:30.841Z,100459.14
2023-04-11T02:25:55.449Z,100458.44
2023-04-11T02:26:18.705Z,100457.35
2023-04-11T02:26:42.450Z,100457.79
2023-04-11T02:27:06.472Z,100459.91
2023-04-11T02:27:33.371Z,100458.88
2023-04-11T02:27:59.546Z,100461.17
2023-04-11T02:28:24.007Z,100461.02
2023-04-11T02:28:50.280Z,100462.83
2023-04-11T02:29:13.499Z,100459.32
2023-04-11T02:29:36.817Z,100460.26
2023-04-11T02:30:01.354Z,100458.33
2023-04-11T02:30:28.255Z,100456.42
2023-04-11T02:30:54.129Z,100460.30
2023-04-11T02:31:17.417Z,100459.43
2023-04-11T02:31:40.979Z,100460.39
2023-04-11T02:32:06.155Z,100458.61
2023-04-11T02:32:30.431Z,100460.25
2023-04-11T02:32:53.607Z,100462.71
2023-04-11T02:33:16.906Z,100457.30
2023-04-11T02:33:39.924Z,100459.27
2023-04-11T02:34:03.170Z,100461.63
2023-04-11T02:34:27.067Z,100458.65
2023-04-11T02:34:56.111Z,100461.83
2023-04-11T02:35:26.691Z,100460.83
2023-04-11T02:35:50.329Z,100462.09
2023-04-11T02:36:14.012Z,100462.98
2023-04-11T02:36:39.110Z,100463.33
2023-04-11T02:37:02.265Z,100463.86
2023-04-11T02:37:26.481Z,100464.06
2023-04-11T02:37:49.676Z,100465.35
2023-04-11T02:38:12.996Z,100462.70
2023-04-11T02:38:37.738Z,100462.51
2023-04-11T02:39:00.722Z,100464.85
2023-04-11T02:39:24.307Z,100464.98
2023-04-11T02:39:47.235Z,100465.81
2023-04-11T02:40:10.833Z,100462.13
2023-04-11T02:40:34.647Z,100465.36
2023-04-11T02:41:00.422Z,100461.87
2023-04-11T02:41:27.627Z,100463.84
2023-04-11T02:41:57.545Z,100463.77
2023-04-11T02:42:20.700Z,100461.63
2023-04-11T02:42:47.087Z,100463.23
2023-04-11T02:43:10.116Z,100460.10
2023-04-11T02:43:34.442Z,100463.55
2023-04-11T02:43:57.868Z,100463.00
2023-04-11T02:44:22.651Z,100459.98
2023-04-11T02:44:46.337Z,100462.27
2023-04-11T02:45:09.941Z,100463.86
2023-04-11T02:45:33.181Z,100463.36
2023-04-11T02:46:09.597Z,100463.52
2023-04-11T02:46:36.209Z,100461.69
2023-04-11T02:47:00.330Z,100461.35
2023-04-11T02:47:28.718Z,100463.34
2023-04-11T02:48:01.629Z,100461.45
2023-04-11T02:48:27.078Z,100462.58
2023-04-11T02:48:50.391Z,100460.85
2023-04-11T02:49:13.904Z,100461.94
2023-04-11T02:49:37.412Z,100462.27
2023-04-11T02:50:00.944Z,100460.91
2023-04-11T02:50:28.033Z,100459.13
2023-04-11T02:50:51.886Z,100461.65
2023-04-11T02:51:15.089Z,100459.93
2023-04-11T02:51:38.619Z,100458.39
2023-04-11T02:52:01.829Z,100461.24
2023-04-11T02:52:26.369Z,100461.80
2023-04-11T02:52:49.892Z,100459.08
2023-04-11T02:53:16.608Z,100461.37
2023-04-11T02:53:44.615Z,100459.80
2023-04-11T02:54:13.456Z,100459.14
2023-04-11T02:54:37.086Z,100455.70
2023-04-11T02:55:01.685Z,100457.64
2023-04-11T02:55:27.292Z,100457.38
2023-04-11T02:55:51.754Z,100455.48
2023-04-11T02:56:19.051Z,100454.98
2023-04-11T02:56:44.306Z,100456.09
2023-04-11T02:57:07.520Z,100451.27
2023-04-11T02:57:30.762Z,100452.96
2023-04-11T02:57:54.158Z,100450.79
2023-04-11T02:58:18.253Z,100454.65
2023-04-11T02:58:43.557Z,100452.04
2023-04-11T02:59:08.204Z,100452.76
2023-04-11T02:59:31.934Z,100449.80
2023-04-11T02:59:57.931Z,100450.92
2023-04-11T03:00:33.213Z,100450.54
2023-04-11T03:01:00.712Z,100449.44
2023-04-11T03:01:27.618Z,100454.67
2023-04-11T03:01:59.006Z,100451.68
2023-04-11T03:02:23.677Z,100453.02
2023-04-11T03:02:47.395Z,100453.36
2023-04-11T03:03:12.265Z,100454.45
2023-04-11T03:03:38.990Z,100455.77
2023-04-11T03:04:02.878Z,100453.19
2023-04-11T03:04:35.105Z,100451.29
2023-04-11T03:05:09.264Z,100453.30
2023-04-11T03:05:33.268Z,100453.40
2023-04-11T03:05:57.208Z,100452.63
2023-04-11T03:06:20.825Z,100456.51
2023-04-11T03:06:44.147Z,100453.91
2023-04-11T03:07:07.462Z,100455.42
2023-04-11T03:07:32.247Z,100457.27
2023-04-11T03:07:57.983Z,100454.52
2023-04-11T03:08:24.478Z,100453.55
2023-04-11T03:08:50.355Z,100453.75
2023-04-11T03:09:13.711Z,100453.84
2023-04-11T03:09:40.365Z,100453.50
2023-04-11T03:10:03.691Z,100456.23
2023-04-11T03:10:29.305Z,100454.35
2023-04-11T03:10:54.001Z,100456.66
2023-04-11T03:11:17.942Z,100453.73
2023-04-11T03:11:41.397Z,100451.67
2023-04-11T03:12:04.625Z,100455.27
2023-04-11T03:12:27.991Z,100454.77
2023-04-11T03:12:53.459Z,100454.54
2023-04-11T03:13:16.576Z,100458.87
2023-04-11T03:13:39.842Z,100456.61
2023-04-11T03:14:07.342Z,100453.81
2023-04-11T03:14:32.009Z,100455.41
2023-04-11T03:14:57.218Z,100457.77
2023-04-11T03:15:24.113Z,100456.79
2023-04-11T03:15:48.923Z,100457.06
2023-04-11T03:16:14.081Z,100459.20
2023-04-11T03:16:38.583Z,100455.55
2023-04-11T03:17:02.289Z,100456.11
2023-04-11T03:17:28.764Z,100457.92
2023-04-11T03:17:52.183Z,100460.45
2023-04-11T03:18:15.418Z,100457.40
2023-04-11T03:18:41.090Z,100458.20
2023-04-11T03:19:06.204Z,100458.04
2023-04-11T03:19:29.263Z,100459.04
2023-04-11T03:19:52.891Z,100458.58
2023-04-11T03:20:21.830Z,100458.80
2023-04-11T03:20:47.093Z,100459.94
2023-04-11T03:21:15.216Z,100457.72
2023-04-11T03:21:50.138Z,100461.36
2023-04-11T03:22:13.770Z,100460.19
2023-04-11T03:22:38.982Z,100455.81
2023-04-11T03:23:02.245Z,100455.31
2023-04-11T03:23:25.520Z,100457.15
2023-04-11T03:23:49.640Z,100455.23
2023-04-11T03:24:13.076Z,100456.52
2023-04-11T03:24:39.565Z,100456.73
2023-04-11T03:25:03.817Z,100453.79
2023-04-11T03:25:28.268Z,100452.59
2023-04-11T03:25:51.905Z,100454.78
2023-04-11T03:26:15.295Z,100453.77
2023-04-11T03:26:39.131Z,100452.74
2023-04-11T03:27:06.124Z,100449.48
2023-04-11T03:27:29.748Z,100449.55
2023-04-11T03:27:58.895Z,100448.95
2023-04-11T03:28:24.186Z,100451.11
2023-04-11T03:28:47.204Z,100449.02
2023-04-11T03:29:12.130Z,100449.41
2023-04-11T03:29:45.632Z,100448.02
2023-04-11T03:30:19.941Z,100445.08
2023-04-11T03:30:44.180Z,100445.48
2023-04-11T03:31:09.885Z,100446.67
2023-04-11T03:31:33.418Z,100443.66
2023-04-11T03:31:56.789Z,100442.15
2023-04-11T03:32:19.806Z,100445.38
2023-04-11T03:32:43.676Z,100444.88
2023-04-11T03:33:07.375Z,100443.86
2023-04-11T03:33:30.574Z,100443.01
2023-04-11T03:33:53.707Z,100443.35
2023-04-11T03:34:18.952Z,100440.32
2023-04-11T03:34:42.509Z,100443.73
2023-04-11T03:35:06.204Z,100441.04
2023-04-11T03:35:30.670Z,100439.02
2023-04-11T03:35:54.892Z,100437.55
2023-04-11T03:36:19.063Z,100438.98
2023-04-11T03:36:44.607Z,100439.38
2023-04-11T03:37:08.627Z,100437.48
2023-04-11T03:37:32.496Z,100438.91
2023-04-11T03:37:55.777Z,100435.77
2023-04-11T03:38:18.887Z,100438.08
2023-04-11T03:38:42.823Z,100437.25
2023-04-11T03:39:06.246Z,100438.34
2023-04-11T03:39:29.262Z,100432.02
2023-04-11T03:39:53.593Z,100434.36
2023-04-11T03:40:18.801Z,100434.73
2023-04-11T03:40:46.267Z,100430.54
2023-04-11T03:41:11.630Z,100433.59
2023-04-11T03:41:34.854Z,100433.23
2023-04-11T03:41:58.170Z,100432.36
2023-04-11T03:42:21.898Z,100436.27
2023-04-11T03:42:48.176Z,100430.52
2023-04-11T03:43:13.542Z,100431.22
2023-04-11T03:43:37.076Z,100434.27
2023-04-11T03:44:00.183Z,100431.95
2023-04-11T03:44:23.469Z,100429.85
2023-04-11T03:44:46.920Z,100431.45
2023-04-11T03:45:10.237Z,100429.69
2023-04-11T03:45:33.349Z,100431.77
2023-04-11T03:45:57.793Z,100429.52
2023-04-11T03:46:33.246Z,100428.64
2023-04-11T03:46:57.151Z,100427.90
2023-04-11T03:47:21.354Z,100431.75
2023-04-11T03:47:44.901Z,100430.98
2023-04-11T03:48:08.797Z,100429.96
2023-04-11T03:48:58.260Z,100427.70
2023-04-11T03:49:22.344Z,100425.86
2023-04-11T03:49:48.937Z,100426.82
2023-04-11T03:50:12.461Z,100423.27
2023-04-11T03:50:39.460Z,100424.81
2023-04-11T03:51:02.786Z,100427.27
2023-04-11T03:51:33.686Z,100426.08
2023-04-11T03:52:02.095Z,100425.45
2023-04-11T03:52:25.841Z,100423.64
2023-04-11T03:52:49.346Z,100422.73
2023-04-11T03:53:12.664Z,100423.27
2023-04-11T03:53:37.625Z,100422.21
2023-04-11T03:54:10.453Z,100421.10
2023-04-11T03:54:37.669Z,100418.77
2023-04-11T03:55:00.979Z,100422.48
2023-04-11T03:55:26.238Z,100420.86
2023-04-11T03:55:49.619Z,100418.74
2023-04-11T03:56:12.985Z,100418.73
2023-04-11T03:56:36.459Z,100420.84
2023-04-11T03:56:59.509Z,100421.34
2023-04-11T03:57:28.155Z,100420.47
2023-04-11T03:57:52.325Z,100422.20
2023-04-11T03:58:15.810Z,100416.02
2023-04-11T03:58:39.864Z,100421.11
2023-04-11T03:59:03.623Z,100417.77
2023-04-11T03:59:47.867Z,100421.77
2023-04-11T04:00:11.790Z,100423.20
2023-04-11T04:01:02.861Z,100421.07
2023-04-11T04:01:27.365Z,100423.36
2023-04-11T04:01:52.267Z,100420.48
2023-04-11T04:02:15.809Z,100425.77
2023-04-11T04:02:43.369Z,100419.42
2023-04-11T04:03:08.741Z,100421.65
2023-04-11T04:03:33.216Z,100424.65
2023-04-11T04:03:57.106Z,100426.91
2023-04-11T04:04:20.595Z,100429.23
2023-04-11T04:04:58.855Z,100427.05
2023-04-11T04:05:32.925Z,100428.14
2023-04-11T04:06:01.255Z,100425.46
2023-04-11T04:06:28.694Z,100428.21
2023-04-11T04:06:57.112Z,100426.34
2023-04-11T04:08:14.314Z,100426.81
2023-04-11T04:08:40.707Z,100424.32
2023-04-11T04:09:04.442Z,100425.93
2023-04-11T04:09:33.886Z,100426.20
2023-04-11T04:09:57.100Z,100424.38
2023-04-11T04:10:20.524Z,100426.11
2023-04-11T04:10:47.216Z,100427.66
2023-04-11T04:11:10.560Z,100422.70
2023-04-11T04:11:33.941Z,100426.95
2023-04-11T04:11:59.337Z,100423.92
2023-04-11T04:12:37.980Z,100428.98
2023-04-11T04:13:15.826Z,100427.70
2023-04-11T04:13:56.031Z,100428.79
2023-04-11T04:14:19.742Z,100428.13
2023-04-11T04:14:43.870Z,100427.42
2023-04-11T04:15:07.402Z,100430.25
2023-04-11T04:15:32.872Z,100433.92
2023-04-11T04:15:58.465Z,100432.59
2023-04-11T04:16:24.151Z,100434.17
2023-04-11T04:16:50.327Z,100430.00
2023-04-11T04:17:15.860Z,100433.06
2023-04-11T04:17:38.905Z,100433.09
2023-04-11T04:18:05.705Z,100434.14
2023-04-11T04:18:41.420Z,100434.00
2023-04-11T04:19:04.780Z,100435.40
2023-04-11T04:19:34.745Z,100438.00
2023-04-11T04:20:02.160Z,100436.74
2023-04-11T04:20:26.085Z,100435.55
2023-04-11T04:20:51.971Z,100437.59
2023-04-11T04:21:17.026Z,100437.00
2023-04-11T04:21:42.085Z,100439.73
2023-04-11T04:22:12.046Z,100439.73
2023-04-11T04:22:38.722Z,100440.44
2023-04-11T04:23:04.781Z,100441.01
2023-04-11T04:23:47.686Z,100440.39
2023-04-11T04:24:28.067Z,100442.14
2023-04-11T04:25:17.062Z,100439.96
2023-04-11T04:25:42.424Z,100443.56
2023-04-11T04:26:06.251Z,100445.33
2023-04-11T04:26:38.132Z,100444.34
2023-04-11T04:27:30.330Z,100441.05
2023-04-11T04:27:54.353Z,100442.01
2023-04-11T04:28:22.502Z,100443.06
2023-04-11T04:28:48.566Z,100439.89
2023-04-11T04:29:18.249Z,100443.60
2023-04-11T04:29:48.308Z,100440.77
2023-04-11T04:30:19.388Z,100439.63
2023-04-11T04:31:04.485Z,100442.11
2023-04-11T04:31:36.474Z,100441.25
2023-04-11T04:32:03.402Z,100439.30
2023-04-11T04:32:33.027Z,100437.23
2023-04-11T04:33:05.299Z,100434.95
2023-04-11T04:33:28.999Z,100438.63
2023-04-11T04:34:03.159Z,100440.23
2023-04-11T04:34:29.313Z,100437.05
2023-04-11T04:34:58.029Z,100434.91
2023-04-11T04:35:33.301Z,100434.56
2023-04-11T04:36:00.361Z,100433.46
2023-04-11T04:36:26.035Z,100430.81
2023-04-11T04:36:49.557Z,100432.60
2023-04-11T04:37:23.114Z,100434.36
2023-04-11T04:37:51.038Z,100432.73
2023-04-11T04:38:21.917Z,100431.48
2023-04-11T04:38:48.132Z,100429.72
2023-04-11T04:39:12.343Z,100428.66
2023-04-11T04:39:38.308Z,100426.23
2023-04-11T04:40:08.027Z,100424.63
2023-04-11T04:40:45.723Z,100431.02
2023-04-11T04:41:15.274Z,100430.81
2023-04-11T04:41:41.142Z,100430.08
2023-04-11T04:42:04.585Z,100429.62
2023-04-11T04:42:58.549Z,100426.58
2023-04-11T04:43:42.871Z,100425.98
2023-04-11T04:44:16.508Z,100425.80
2023-04-11T04:44:45.852Z,100425.61
2023-04-11T04:45:13.693Z,100423.61
2023-04-11T04:45:37.553Z,100423.48
2023-04-11T04:46:01.344Z,100422.98
2023-04-11T04:46:36.781Z,100424.02
2023-04-11T04:46:59.953Z,100420.73
2023-04-11T04:47:24.518Z,100420.48
2023-04-11T04:47:47.527Z,100419.41
2023-04-11T04:48:12.856Z,100421.18
2023-04-11T04:48:35.995Z,100421.73
2023-04-11T04:49:01.001Z,100414.50
2023-04-11T04:49:25.469Z,100416.27
2023-04-11T04:49:48.685Z,100419.54
2023-04-11T04:50:12.003Z,100414.14
2023-04-11T04:50:37.778Z,100417.38